Taranto — V2AK2 — position and weather

sailwx.info

Track history (hours):
 
Tides and Currents Weather Stations Pressure Air Temp Water Temp Dewpoint Dewpoint Depression Visibility Wind Speed Wind Dir Waves Ship Positions

Taranto

Last reported at 2014-Jul-22 15:28 UTC. Time now 2014-Jul-22 18:55 UTC.
Position N 54°50' W 001°20'.

Length 88 m; draft 5 m.

Type: Cargo ship. MMSI: 304010614.

Date/timePositionNaut miles runAvg speedWind from/ knotsBaromVisibWave heightAir tempDewpointWater temp
2014-Jul-22 15:28N 54°50' W 001°20'0 0.0
2014-Jul-22 14:19N 54°50' W 001°20'0 0.0
2014-Jul-22 13:34N 54°50' W 001°20'0 0.0
2014-Jul-22 11:18N 54°50' W 001°20'0 0.0
2014-Jul-22 10:28N 54°50' W 001°20'1 1.3
2014-Jul-22 09:33N 54°50' W 001°18'0 0.1
2014-Jul-22 07:32N 54°50' W 001°18'5 4.6
2014-Jul-22 06:32N 54°48' W 001°10'1110.2
2014-Jul-22 05:26N 54°42' W 000°55'910.2
2014-Jul-22 04:33N 54°37' W 000°41'10 9.8
2014-Jul-22 03:33N 54°32' W 000°27'9 9.2
2014-Jul-22 02:34N 54°25' W 000°16'9 8.7
2014-Jul-22 01:33N 54°19' W 000°06'8 8.3
2014-Jul-22 00:34N 54°13' E 000°03'8 8.3
2014-Jul-21 23:34N 54°06' E 000°12'74 9.1
2014-Jul-21 15:28N 53°01' E 001°12'7 7.6
2014-Jul-21 14:33N 52°59' E 001°23'7 7.4
2014-Jul-21 13:34N 52°56' E 001°34'8 8.1
2014-Jul-21 12:33N 52°50' E 001°44'77 9.6
2014-Jul-21 04:32N 51°51' E 003°04'9 8.9
2014-Jul-21 03:30N 51°44' E 003°13'6 6.8
2014-Jul-21 02:33N 51°39' E 003°20'11 9.2
2014-Jul-21 01:22N 51°30' E 003°29'8 9.6
2014-Jul-21 00:33N 51°25' E 003°39'8 8.1
2014-Jul-20 23:33N 51°20' E 003°49'7 6.7
2014-Jul-20 22:33N 51°13' E 003°48'2 2.3
2014-Jul-20 21:31N 51°11' E 003°48'0 0.0
2014-Jul-20 20:28N 51°11' E 003°48'0 0.0
2014-Jul-20 19:16N 51°11' E 003°48'0 0.0
2014-Jul-20 18:16N 51°11' E 003°48'0 0.0
2014-Jul-20 17:22N 51°11' E 003°48'0 0.0
2014-Jul-20 16:31N 51°11' E 003°48'0 0.0
2014-Jul-20 15:22N 51°11' E 003°48'0 0.0
2014-Jul-20 13:25N 51°11' E 003°48'0 0.0
2014-Jul-20 12:10N 51°11' E 003°48'0 0.0
2014-Jul-20 11:22N 51°11' E 003°48'0 0.0
2014-Jul-20 10:22N 51°11' E 003°48'0 0.0
2014-Jul-20 09:22N 51°11' E 003°48'0 0.0
2014-Jul-20 08:22N 51°11' E 003°48'0 0.0
2014-Jul-20 07:25N 51°11' E 003°48'0 0.0
2014-Jul-20 06:22N 51°11' E 003°48'0 0.0
2014-Jul-20 05:22N 51°11' E 003°48'0 0.0
2014-Jul-20 04:31N 51°11' E 003°48'0 0.0
2014-Jul-20 03:31N 51°11' E 003°48'0 0.0
2014-Jul-20 02:31N 51°11' E 003°48'0 0.0
2014-Jul-20 01:31N 51°11' E 003°48'0 0.0
2014-Jul-20 00:31N 51°11' E 003°48'0 0.0
2014-Jul-19 23:16N 51°11' E 003°48'0 0.0
2014-Jul-19 22:28N 51°11' E 003°48'0 0.0
2014-Jul-19 21:31N 51°11' E 003°48'0 0.0
2014-Jul-19 20:28N 51°11' E 003°48'0 0.0
2014-Jul-19 19:25N 51°11' E 003°48'0 0.0
2014-Jul-19 18:28N 51°11' E 003°48'0 0.0
2014-Jul-19 17:28N 51°11' E 003°48'0 0.0
2014-Jul-19 16:31N 51°11' E 003°48'0 0.0
2014-Jul-19 15:33N 51°11' E 003°48'0 0.0
2014-Jul-19 14:32N 51°11' E 003°48'0 0.0
2014-Jul-19 13:33N 51°11' E 003°48'0 0.0
2014-Jul-19 12:33N 51°11' E 003°48'0 0.0
2014-Jul-19 11:33N 51°11' E 003°48'0 0.0
2014-Jul-19 10:33N 51°11' E 003°48'0 0.0
2014-Jul-19 09:33N 51°11' E 003°48'0 0.0
2014-Jul-19 08:33N 51°11' E 003°48'0 0.0
2014-Jul-19 07:33N 51°11' E 003°48'0 0.0
2014-Jul-19 06:33N 51°11' E 003°48'0 0.0
2014-Jul-19 05:32N 51°11' E 003°48'0 0.0
2014-Jul-19 04:32N 51°11' E 003°48'0 0.0
2014-Jul-19 03:33N 51°11' E 003°48'0 0.0
2014-Jul-19 02:32N 51°11' E 003°48'0 0.0
2014-Jul-19 01:19N 51°11' E 003°48'0 0.0
2014-Jul-19 00:32N 51°11' E 003°48'0 0.0
2014-Jul-18 23:33N 51°11' E 003°48'6 5.7
2014-Jul-18 22:33N 51°16' E 003°50'5 5.1
2014-Jul-18 21:33N 51°21' E 003°47'7 7.4
2014-Jul-18 20:34N 51°25' E 003°38'9 8.3
2014-Jul-18 19:31N 51°31' E 003°27'10210.2
2014-Jul-18 09:31N 52°50' E 001°42'1010.4
2014-Jul-18 08:33N 52°56' E 001°28'58 9.0
2014-Jul-18 02:07N 53°33' E 000°14'611.0
2014-Jul-18 01:33N 53°35' E 000°04'1212.4
2014-Jul-18 00:33N 53°41' W 000°13'9 0.2
2014-Jul-16 07:22N 53°42' W 000°29'6 7.8
2014-Jul-16 06:32N 53°44' W 000°18'9 9.0
2014-Jul-16 05:33N 53°37' W 000°07'1211.9
2014-Jul-16 04:33N 53°33' E 000°11'7 6.5
2014-Jul-16 03:33N 53°33' E 000°22'3 2.6
2014-Jul-16 02:22N 53°35' E 000°26'0 0.0
2014-Jul-15 23:10N 53°35' E 000°26'0 0.1
2014-Jul-15 22:25N 53°35' E 000°26'0 0.0
2014-Jul-15 21:31N 53°35' E 000°26'0 0.1
2014-Jul-15 20:10N 53°35' E 000°26'0 0.0
2014-Jul-15 19:31N 53°35' E 000°26'0 0.1
2014-Jul-15 18:32N 53°35' E 000°26'44 8.3
2014-Jul-15 13:11N 53°01' E 001°12'610.2
2014-Jul-15 12:33N 52°58' E 001°22'9 9.4
2014-Jul-15 11:33N 52°54' E 001°36'8 7.6
2014-Jul-15 10:32N 52°50' E 001°48'86 8.5
2014-Jul-15 00:28N 52°04' E 003°46'8 8.8
2014-Jul-14 23:32N 52°01' E 003°59'4 4.0
2014-Jul-14 22:33N 51°58' E 004°02'0 0.0
2014-Jul-14 13:30N 51°58' E 004°02'0 0.0
2014-Jul-14 00:06N 51°58' E 004°02'0 0.0
2014-Jul-13 23:33N 51°58' E 004°02'0 0.0
2014-Jul-13 20:30N 51°58' E 004°02'0 0.0
2014-Jul-13 19:15N 51°58' E 004°02'0 0.0
2014-Jul-13 11:15N 51°58' E 004°02'0 0.0
2014-Jul-13 10:18N 51°58' E 004°02'0 0.0
2014-Jul-13 09:33N 51°58' E 004°02'0 0.0
2014-Jul-13 08:30N 51°58' E 004°02'0 0.0
2014-Jul-13 07:33N 51°58' E 004°02'0 0.0
2014-Jul-13 06:33N 51°58' E 004°02'0 0.0
2014-Jul-13 05:24N 51°58' E 004°02'0 0.0
2014-Jul-12 21:18N 51°58' E 004°02'0 0.0
2014-Jul-12 19:27N 51°58' E 004°02'0 0.0
2014-Jul-12 18:27N 51°58' E 004°02'0 0.0
2014-Jul-12 17:21N 51°58' E 004°02'0 0.0
2014-Jul-12 16:27N 51°58' E 004°02'  
Track history (hours):
 
Tides and Currents Weather Stations Pressure Air Temp Water Temp Dewpoint Dewpoint Depression Visibility Wind Speed Wind Dir Waves Ship Positions

Taranto

Last reported at 2014-Jul-22 15:28 UTC. Time now 2014-Jul-22 18:55 UTC.
Position N 54°50' W 001°20'.

Length 88 m; draft 5 m.

Type: Cargo ship. MMSI: 304010614.

Date/timePositionNaut miles runAvg speedWind from/ knotsBaromVisibWave heightAir tempDewpointWater temp
2014-Jul-22 15:28N 54°50' W 001°20'0 0.0
2014-Jul-22 14:19N 54°50' W 001°20'0 0.0
2014-Jul-22 13:34N 54°50' W 001°20'0 0.0
2014-Jul-22 11:18N 54°50' W 001°20'0 0.0
2014-Jul-22 10:28N 54°50' W 001°20'1 1.3
2014-Jul-22 09:33N 54°50' W 001°18'0 0.1
2014-Jul-22 07:32N 54°50' W 001°18'5 4.6
2014-Jul-22 06:32N 54°48' W 001°10'1110.2
2014-Jul-22 05:26N 54°42' W 000°55'910.2
2014-Jul-22 04:33N 54°37' W 000°41'10 9.8
2014-Jul-22 03:33N 54°32' W 000°27'9 9.2
2014-Jul-22 02:34N 54°25' W 000°16'9 8.7
2014-Jul-22 01:33N 54°19' W 000°06'8 8.3
2014-Jul-22 00:34N 54°13' E 000°03'8 8.3
2014-Jul-21 23:34N 54°06' E 000°12'74 9.1
2014-Jul-21 15:28N 53°01' E 001°12'7 7.6
2014-Jul-21 14:33N 52°59' E 001°23'7 7.4
2014-Jul-21 13:34N 52°56' E 001°34'8 8.1
2014-Jul-21 12:33N 52°50' E 001°44'77 9.6
2014-Jul-21 04:32N 51°51' E 003°04'9 8.9
2014-Jul-21 03:30N 51°44' E 003°13'6 6.8
2014-Jul-21 02:33N 51°39' E 003°20'11 9.2
2014-Jul-21 01:22N 51°30' E 003°29'8 9.6
2014-Jul-21 00:33N 51°25' E 003°39'8 8.1
2014-Jul-20 23:33N 51°20' E 003°49'7 6.7
2014-Jul-20 22:33N 51°13' E 003°48'2 2.3
2014-Jul-20 21:31N 51°11' E 003°48'0 0.0
2014-Jul-20 20:28N 51°11' E 003°48'0 0.0
2014-Jul-20 19:16N 51°11' E 003°48'0 0.0
2014-Jul-20 18:16N 51°11' E 003°48'0 0.0
2014-Jul-20 17:22N 51°11' E 003°48'0 0.0
2014-Jul-20 16:31N 51°11' E 003°48'0 0.0
2014-Jul-20 15:22N 51°11' E 003°48'0 0.0
2014-Jul-20 13:25N 51°11' E 003°48'0 0.0
2014-Jul-20 12:10N 51°11' E 003°48'0 0.0
2014-Jul-20 11:22N 51°11' E 003°48'0 0.0
2014-Jul-20 10:22N 51°11' E 003°48'0 0.0
2014-Jul-20 09:22N 51°11' E 003°48'0 0.0
2014-Jul-20 08:22N 51°11' E 003°48'0 0.0
2014-Jul-20 07:25N 51°11' E 003°48'0 0.0
2014-Jul-20 06:22N 51°11' E 003°48'0 0.0
2014-Jul-20 05:22N 51°11' E 003°48'0 0.0
2014-Jul-20 04:31N 51°11' E 003°48'0 0.0
2014-Jul-20 03:31N 51°11' E 003°48'0 0.0
2014-Jul-20 02:31N 51°11' E 003°48'0 0.0
2014-Jul-20 01:31N 51°11' E 003°48'0 0.0
2014-Jul-20 00:31N 51°11' E 003°48'0 0.0
2014-Jul-19 23:16N 51°11' E 003°48'0 0.0
2014-Jul-19 22:28N 51°11' E 003°48'0 0.0
2014-Jul-19 21:31N 51°11' E 003°48'0 0.0
2014-Jul-19 20:28N 51°11' E 003°48'0 0.0
2014-Jul-19 19:25N 51°11' E 003°48'0 0.0
2014-Jul-19 18:28N 51°11' E 003°48'0 0.0
2014-Jul-19 17:28N 51°11' E 003°48'0 0.0
2014-Jul-19 16:31N 51°11' E 003°48'0 0.0
2014-Jul-19 15:33N 51°11' E 003°48'0 0.0
2014-Jul-19 14:32N 51°11' E 003°48'0 0.0
2014-Jul-19 13:33N 51°11' E 003°48'0 0.0
2014-Jul-19 12:33N 51°11' E 003°48'0 0.0
2014-Jul-19 11:33N 51°11' E 003°48'0 0.0
2014-Jul-19 10:33N 51°11' E 003°48'0 0.0
2014-Jul-19 09:33N 51°11' E 003°48'0 0.0
2014-Jul-19 08:33N 51°11' E 003°48'0 0.0
2014-Jul-19 07:33N 51°11' E 003°48'0 0.0
2014-Jul-19 06:33N 51°11' E 003°48'0 0.0
2014-Jul-19 05:32N 51°11' E 003°48'0 0.0
2014-Jul-19 04:32N 51°11' E 003°48'0 0.0
2014-Jul-19 03:33N 51°11' E 003°48'0 0.0
2014-Jul-19 02:32N 51°11' E 003°48'0 0.0
2014-Jul-19 01:19N 51°11' E 003°48'0 0.0
2014-Jul-19 00:32N 51°11' E 003°48'0 0.0
2014-Jul-18 23:33N 51°11' E 003°48'6 5.7
2014-Jul-18 22:33N 51°16' E 003°50'5 5.1
2014-Jul-18 21:33N 51°21' E 003°47'7 7.4
2014-Jul-18 20:34N 51°25' E 003°38'9 8.3
2014-Jul-18 19:31N 51°31' E 003°27'10210.2
2014-Jul-18 09:31N 52°50' E 001°42'1010.4
2014-Jul-18 08:33N 52°56' E 001°28'58 9.0
2014-Jul-18 02:07N 53°33' E 000°14'611.0
2014-Jul-18 01:33N 53°35' E 000°04'1212.4
2014-Jul-18 00:33N 53°41' W 000°13'9 0.2
2014-Jul-16 07:22N 53°42' W 000°29'6 7.8
2014-Jul-16 06:32N 53°44' W 000°18'9 9.0
2014-Jul-16 05:33N 53°37' W 000°07'1211.9
2014-Jul-16 04:33N 53°33' E 000°11'7 6.5
2014-Jul-16 03:33N 53°33' E 000°22'3 2.6
2014-Jul-16 02:22N 53°35' E 000°26'0 0.0
2014-Jul-15 23:10N 53°35' E 000°26'0 0.1
2014-Jul-15 22:25N 53°35' E 000°26'0 0.0
2014-Jul-15 21:31N 53°35' E 000°26'0 0.1
2014-Jul-15 20:10N 53°35' E 000°26'0 0.0
2014-Jul-15 19:31N 53°35' E 000°26'0 0.1
2014-Jul-15 18:32N 53°35' E 000°26'44 8.3
2014-Jul-15 13:11N 53°01' E 001°12'610.2
2014-Jul-15 12:33N 52°58' E 001°22'9 9.4
2014-Jul-15 11:33N 52°54' E 001°36'8 7.6
2014-Jul-15 10:32N 52°50' E 001°48'86 8.5
2014-Jul-15 00:28N 52°04' E 003°46'8 8.8
2014-Jul-14 23:32N 52°01' E 003°59'4 4.0
2014-Jul-14 22:33N 51°58' E 004°02'0 0.0
2014-Jul-14 13:30N 51°58' E 004°02'0 0.0
2014-Jul-14 00:06N 51°58' E 004°02'0 0.0
2014-Jul-13 23:33N 51°58' E 004°02'0 0.0
2014-Jul-13 20:30N 51°58' E 004°02'0 0.0
2014-Jul-13 19:15N 51°58' E 004°02'0 0.0
2014-Jul-13 11:15N 51°58' E 004°02'0 0.0
2014-Jul-13 10:18N 51°58' E 004°02'0 0.0
2014-Jul-13 09:33N 51°58' E 004°02'0 0.0
2014-Jul-13 08:30N 51°58' E 004°02'0 0.0
2014-Jul-13 07:33N 51°58' E 004°02'0 0.0
2014-Jul-13 06:33N 51°58' E 004°02'0 0.0
2014-Jul-13 05:24N 51°58' E 004°02'0 0.0
2014-Jul-12 21:18N 51°58' E 004°02'0 0.0
2014-Jul-12 19:27N 51°58' E 004°02'0 0.0
2014-Jul-12 18:27N 51°58' E 004°02'0 0.0
2014-Jul-12 17:21N 51°58' E 004°02'0 0.0
2014-Jul-12 16:27N 51°58' E 004°02'  

Dump ship's entire track history